This is the latest recevied weather packets stored in our database for station/object EW2310. If no packets are shown the sender has not sent any weather packets the latest 10 day(s).
| Time | Temp. | Humidity | Pressure | Rain* | Wind** | Luminosity | Snow |
|---|---|---|---|---|---|---|---|
| 1777715743 | 20° C | 29% | 1021.5 hPa | 0 mm | - | 912 W/m² | - |
| 1777713043 | 18.33° C | 33% | 1021.7 hPa | 0 mm | - | 847 W/m² | - |
| 1777712743 | 18.33° C | 31% | 1021.8 hPa | 0 mm | - | 819 W/m² | - |
| 1777712446 | 18.89° C | 30% | 1021.9 hPa | 0 mm | - | 779 W/m² | - |
| 1777710643 | 17.78° C | 37% | 1022 hPa | 0 mm | - | 596 W/m² | - |
| 1777709443 | 17.22° C | 36% | 1022.1 hPa | 0 mm | - | 624 W/m² | - |
| 1777708543 | 16.11° C | 39% | 1022 hPa | 0 mm | - | 650 W/m² | - |
| 1777707943 | 16.11° C | 40% | 1022 hPa | 0 mm | - | 647 W/m² | - |
| 1777705846 | 14.44° C | 43% | 1022.1 hPa | 0 mm | - | 522 W/m² | - |
| 1777704343 | 13.33° C | 46% | 1022 hPa | 0 mm | - | 367 W/m² | - |
| 1777702245 | 11.67° C | 49% | 1022 hPa | 0 mm | - | 352 W/m² | - |
| 1777698645 | 10.56° C | 47% | 1022 hPa | 0 mm | - | 141 W/m² | - |
| 1777696243 | 10° C | 48% | 1021.8 hPa | 0 mm | - | 25 W/m² | - |
| 1777693543 | 10.56° C | 45% | 1021.7 hPa | 0 mm | - | 0 W/m² | - |
| 1777690243 | 10.56° C | 45% | 1021.6 hPa | 0 mm | - | 0 W/m² | - |
| 1777684842 | 11.67° C | 41% | 1021.7 hPa | 0 mm | - | 0 W/m² | - |
| 1777684242 | 11.11° C | 42% | 1021.8 hPa | 0 mm | - | 0 W/m² | - |
| 1777677342 | 13.89° C | 36% | 1022 hPa | 0 mm | - | 0 W/m² | - |
| 1777675542 | 14.44° C | 33% | 1022.1 hPa | 0 mm | - | 0 W/m² | - |
| 1777674644 | 13.89° C | 35% | 1022 hPa | 0 mm | - | 0 W/m² | - |
| 1777674045 | 13.89° C | 35% | 1022 hPa | 0 mm | - | 0 W/m² | - |
| 1777673743 | 13.89° C | 35% | 1021.9 hPa | 0 mm | - | 0 W/m² | - |
| 1777673143 | 13.89° C | 39% | 1021.8 hPa | 0 mm | - | 0 W/m² | - |
| 1777671642 | 14.44° C | 45% | 1021.6 hPa | 0 mm | - | 0 W/m² | - |
| 1777670442 | 14.44° C | 48% | 1021.5 hPa | 0 mm | - | 0 W/m² | - |
* Rain latest hour (hover to see other rain measurements)
** Current wind speed in m/s (hover to see current wind gust speed)